createdAt,value
2022-11-30T00:00:13.356Z,66.00
2022-11-30T00:01:13.350Z,63.30
2022-11-30T00:02:13.404Z,64.60
2022-11-30T00:03:13.400Z,65.00
2022-11-30T00:04:13.338Z,65.30
2022-11-30T00:05:13.300Z,63.80
2022-11-30T00:06:13.288Z,73.30
2022-11-30T00:07:13.279Z,74.20
2022-11-30T00:08:13.279Z,59.50
2022-11-30T00:09:13.269Z,64.70
2022-11-30T00:10:13.254Z,64.30
2022-11-30T00:11:13.239Z,54.60
2022-11-30T00:12:13.237Z,73.30
2022-11-30T00:13:13.224Z,59.20
2022-11-30T00:14:13.230Z,65.80
2022-11-30T00:15:13.194Z,62.90
2022-11-30T00:16:13.254Z,66.20
2022-11-30T00:17:13.172Z,70.90
2022-11-30T00:18:13.170Z,66.40
2022-11-30T00:19:13.172Z,70.60
2022-11-30T00:20:13.145Z,71.60
2022-11-30T00:21:13.134Z,77.40
2022-11-30T00:22:13.127Z,71.60
2022-11-30T00:23:13.114Z,73.20
2022-11-30T00:24:13.126Z,84.10
2022-11-30T00:25:13.093Z,85.20
2022-11-30T00:26:13.091Z,81.50
2022-11-30T00:27:13.072Z,83.00
2022-11-30T00:28:13.070Z,79.90
2022-11-30T00:29:13.065Z,85.60
2022-11-30T00:30:13.047Z,84.60
2022-11-30T00:31:13.098Z,84.00
2022-11-30T00:32:13.030Z,81.20
2022-11-30T00:33:13.010Z,81.00
2022-11-30T00:34:13.028Z,90.00
2022-11-30T00:35:12.987Z,78.60
2022-11-30T00:36:12.986Z,83.20
2022-11-30T00:37:12.967Z,78.90
2022-11-30T00:38:12.965Z,80.50
2022-11-30T00:39:12.968Z,74.10
2022-11-30T00:40:12.951Z,87.10
2022-11-30T00:41:12.929Z,85.00
2022-11-30T00:42:12.928Z,85.50
2022-11-30T00:43:12.909Z,84.10
2022-11-30T00:44:12.920Z,86.50
2022-11-30T00:45:12.901Z,80.30
2022-11-30T00:46:12.915Z,78.50
2022-11-30T00:47:12.869Z,81.10
2022-11-30T00:48:12.862Z,88.80
2022-11-30T00:49:12.862Z,87.80
2022-11-30T00:50:12.846Z,86.10
2022-11-30T00:51:12.833Z,75.50
2022-11-30T00:52:12.812Z,78.10
2022-11-30T00:53:12.826Z,75.40
2022-11-30T00:54:12.831Z,77.00
2022-11-30T00:55:12.782Z,72.90
2022-11-30T00:56:12.780Z,74.60
2022-11-30T00:57:12.766Z,73.80
2022-11-30T00:58:12.757Z,71.90
2022-11-30T00:59:12.763Z,85.20
2022-11-30T01:00:12.743Z,84.30
2022-11-30T01:01:12.745Z,86.30
2022-11-30T01:02:12.747Z,89.50
2022-11-30T01:03:12.714Z,87.10
2022-11-30T01:04:12.726Z,86.30
2022-11-30T01:05:12.686Z,84.00
2022-11-30T01:06:12.677Z,78.50
2022-11-30T01:07:12.666Z,86.60
2022-11-30T01:08:12.668Z,89.80
2022-11-30T01:09:12.658Z,94.10
2022-11-30T01:10:12.635Z,100.50
2022-11-30T01:11:12.617Z,97.40
2022-11-30T01:12:12.626Z,102.00
2022-11-30T01:13:12.599Z,99.20
2022-11-30T01:14:12.609Z,100.70
2022-11-30T01:15:12.580Z,92.60
2022-11-30T01:16:12.620Z,100.20
2022-11-30T01:17:12.559Z,93.20
2022-11-30T01:18:12.550Z,87.00
2022-11-30T01:19:12.560Z,90.30
2022-11-30T01:20:12.531Z,86.10
2022-11-30T01:21:12.519Z,87.40
2022-11-30T01:22:12.511Z,83.40
2022-11-30T01:23:12.492Z,83.20
2022-11-30T01:24:12.509Z,89.30
2022-11-30T01:25:12.472Z,83.80
2022-11-30T01:26:12.474Z,97.10
2022-11-30T01:27:12.453Z,90.80
2022-11-30T01:28:12.451Z,92.70
2022-11-30T01:29:12.454Z,91.80
2022-11-30T01:30:12.431Z,85.90
2022-11-30T01:31:12.455Z,86.30
2022-11-30T01:32:12.413Z,91.40
2022-11-30T01:33:12.393Z,92.10
2022-11-30T01:34:12.408Z,83.80
2022-11-30T01:35:12.376Z,83.10
2022-11-30T01:36:12.367Z,92.60
2022-11-30T01:37:12.356Z,90.40
2022-11-30T01:38:12.355Z,88.60
2022-11-30T01:39:12.347Z,89.90
2022-11-30T01:40:12.347Z,86.20
2022-11-30T01:41:12.308Z,92.90
2022-11-30T01:42:12.314Z,96.50
2022-11-30T01:43:12.296Z,99.20
2022-11-30T01:44:15.533Z,94.70
2022-11-30T01:45:13.268Z,96.90
2022-11-30T01:46:12.299Z,92.80
2022-11-30T01:47:12.249Z,94.70
2022-11-30T01:48:12.242Z,89.80
2022-11-30T01:49:12.250Z,86.30
2022-11-30T01:50:12.223Z,83.50
2022-11-30T01:51:12.213Z,84.20
2022-11-30T01:52:12.206Z,100.30
2022-11-30T01:53:12.191Z,83.80
2022-11-30T01:54:12.212Z,88.90
2022-11-30T01:55:12.161Z,88.70
2022-11-30T01:56:12.162Z,91.70
2022-11-30T01:57:12.156Z,89.10
2022-11-30T01:58:12.150Z,85.60
2022-11-30T01:59:12.150Z,95.70
2022-11-30T02:00:12.122Z,87.70
2022-11-30T02:01:12.144Z,89.50
2022-11-30T02:02:12.164Z,78.10
2022-11-30T02:03:12.085Z,76.30
2022-11-30T02:04:12.097Z,81.30
2022-11-30T02:05:12.065Z,74.10
2022-11-30T02:06:12.066Z,72.30
2022-11-30T02:07:12.075Z,72.10
2022-11-30T02:08:12.236Z,71.10
2022-11-30T02:09:12.053Z,77.10
2022-11-30T02:10:12.019Z,78.00
2022-11-30T02:11:12.003Z,82.20
2022-11-30T02:12:11.998Z,75.10
2022-11-30T02:13:11.986Z,67.10
2022-11-30T02:14:11.998Z,66.30
2022-11-30T02:15:11.963Z,60.50
2022-11-30T02:16:11.995Z,67.60
2022-11-30T02:17:11.945Z,71.60
2022-11-30T02:18:11.938Z,75.30
2022-11-30T02:19:11.949Z,75.00
2022-11-30T02:20:11.920Z,74.50
2022-11-30T02:21:11.959Z,77.00
2022-11-30T02:22:11.890Z,74.60
2022-11-30T02:23:11.880Z,74.10
2022-11-30T02:24:11.879Z,77.20
2022-11-30T02:25:11.881Z,72.30
2022-11-30T02:26:11.852Z,77.00
2022-11-30T02:27:11.844Z,71.90
2022-11-30T02:28:11.832Z,75.80
2022-11-30T02:29:11.825Z,68.50
2022-11-30T02:30:11.832Z,68.90
2022-11-30T02:31:11.867Z,66.60
2022-11-30T02:32:11.794Z,68.00
2022-11-30T02:33:11.782Z,68.10
2022-11-30T02:34:11.773Z,65.40
2022-11-30T02:35:11.774Z,62.80
2022-11-30T02:36:11.755Z,59.70
2022-11-30T02:37:11.741Z,61.60
2022-11-30T02:38:11.733Z,62.20
2022-11-30T02:39:11.716Z,57.40
2022-11-30T02:40:11.745Z,60.40
2022-11-30T02:41:11.695Z,55.80
2022-11-30T02:42:11.687Z,58.30
2022-11-30T02:43:11.675Z,61.70
2022-11-30T02:44:11.674Z,54.90
2022-11-30T02:45:11.667Z,51.90
2022-11-30T02:46:11.692Z,51.70
2022-11-30T02:47:11.644Z,58.10
2022-11-30T02:48:11.639Z,54.30
2022-11-30T02:49:11.618Z,51.50
2022-11-30T02:50:11.627Z,54.00
2022-11-30T02:51:11.602Z,48.50
2022-11-30T02:52:11.588Z,49.70
2022-11-30T02:53:11.596Z,50.60
2022-11-30T02:54:11.566Z,51.20
2022-11-30T02:55:11.570Z,52.50
2022-11-30T02:56:11.550Z,53.00
2022-11-30T02:57:11.531Z,53.20
2022-11-30T02:58:11.523Z,51.90
2022-11-30T02:59:11.512Z,49.90
2022-11-30T03:00:11.521Z,54.60
2022-11-30T03:01:11.556Z,49.50
2022-11-30T03:02:11.497Z,45.00
2022-11-30T03:03:11.465Z,53.40
2022-11-30T03:04:11.470Z,49.60
2022-11-30T03:05:11.463Z,55.50
2022-11-30T03:06:11.454Z,55.90
2022-11-30T03:07:11.434Z,56.70
2022-11-30T03:08:11.424Z,58.20
2022-11-30T03:09:11.416Z,50.70
2022-11-30T03:10:11.422Z,53.40
2022-11-30T03:11:11.391Z,60.00
2022-11-30T03:12:11.385Z,58.30
2022-11-30T03:13:11.379Z,56.10
2022-11-30T03:14:11.355Z,54.00
2022-11-30T03:15:11.366Z,57.60
2022-11-30T03:16:11.446Z,56.80
2022-11-30T03:17:11.335Z,55.90
2022-11-30T03:18:11.317Z,54.40
2022-11-30T03:19:11.316Z,51.80
2022-11-30T03:20:11.322Z,57.90
2022-11-30T03:21:11.292Z,57.00
2022-11-30T03:22:11.280Z,52.40
2022-11-30T03:23:11.279Z,60.40
2022-11-30T03:24:11.249Z,62.80
2022-11-30T03:25:11.269Z,61.70
2022-11-30T03:26:11.230Z,65.50
2022-11-30T03:27:11.230Z,62.50
2022-11-30T03:28:11.212Z,60.20
2022-11-30T03:29:11.202Z,53.20
2022-11-30T03:30:11.211Z,58.20
2022-11-30T03:31:11.247Z,51.10
2022-11-30T03:32:11.171Z,48.30
2022-11-30T03:33:11.169Z,54.40
2022-11-30T03:34:11.154Z,47.80
2022-11-30T03:35:11.163Z,50.20
2022-11-30T03:36:11.146Z,46.90
2022-11-30T03:37:11.151Z,52.90
2022-11-30T03:38:11.123Z,50.80
2022-11-30T03:39:11.112Z,53.60
2022-11-30T03:40:11.111Z,53.20
2022-11-30T03:41:11.085Z,52.90
2022-11-30T03:42:11.066Z,55.10
2022-11-30T03:43:11.064Z,55.80
2022-11-30T03:44:11.047Z,53.70
2022-11-30T03:45:11.063Z,52.10
2022-11-30T03:46:11.089Z,50.50
2022-11-30T03:47:11.023Z,50.50
2022-11-30T03:48:11.026Z,51.10
2022-11-30T03:49:10.998Z,52.80
2022-11-30T03:50:11.009Z,53.90
2022-11-30T03:51:10.981Z,55.90
2022-11-30T03:52:10.967Z,60.60
2022-11-30T03:53:10.958Z,59.80
2022-11-30T03:54:10.949Z,60.00
2022-11-30T03:55:10.958Z,60.70
2022-11-30T03:56:10.929Z,54.80
2022-11-30T03:57:10.919Z,56.20
2022-11-30T03:58:10.908Z,57.60
2022-11-30T03:59:10.910Z,56.40
2022-11-30T04:00:10.909Z,54.20
2022-11-30T04:01:10.880Z,59.40
2022-11-30T04:02:10.938Z,58.00
2022-11-30T04:03:10.893Z,57.60
2022-11-30T04:04:10.849Z,57.90
2022-11-30T04:05:10.851Z,57.40
2022-11-30T04:06:10.832Z,53.60
2022-11-30T04:07:10.821Z,52.10
2022-11-30T04:08:10.812Z,53.30
2022-11-30T04:09:10.812Z,51.30
2022-11-30T04:10:10.815Z,56.00
2022-11-30T04:11:10.773Z,56.40
2022-11-30T04:12:10.774Z,57.20
2022-11-30T04:13:10.754Z,57.10
2022-11-30T04:14:10.772Z,55.30
2022-11-30T04:15:10.745Z,53.80
2022-11-30T04:16:10.779Z,55.90
2022-11-30T04:17:10.715Z,56.20
2022-11-30T04:18:10.706Z,53.20
2022-11-30T04:19:10.685Z,56.10
2022-11-30T04:20:10.706Z,55.00
2022-11-30T04:21:10.671Z,51.40
2022-11-30T04:22:10.665Z,48.20
2022-11-30T04:23:10.667Z,49.20
2022-11-30T04:24:10.646Z,48.40
2022-11-30T04:25:10.677Z,51.50
2022-11-30T04:26:10.625Z,50.60
2022-11-30T04:27:10.608Z,57.50
2022-11-30T04:28:10.599Z,54.30
2022-11-30T04:29:10.597Z,53.50
2022-11-30T04:30:10.600Z,50.10
2022-11-30T04:31:10.597Z,45.00
2022-11-30T04:32:10.560Z,52.80
2022-11-30T04:33:10.551Z,54.20
2022-11-30T04:34:10.550Z,55.20
2022-11-30T04:35:10.557Z,55.20
2022-11-30T04:36:10.523Z,59.00
2022-11-30T04:37:10.509Z,63.30
2022-11-30T04:38:10.501Z,59.50
2022-11-30T04:39:10.482Z,59.20
2022-11-30T04:40:10.503Z,60.20
2022-11-30T04:41:10.473Z,64.70
2022-11-30T04:42:10.469Z,65.80
2022-11-30T04:43:10.453Z,63.40
2022-11-30T04:44:10.445Z,69.80
2022-11-30T04:45:10.443Z,64.10
2022-11-30T04:46:10.431Z,60.20
2022-11-30T04:47:10.403Z,60.20
2022-11-30T04:48:10.396Z,60.70
2022-11-30T04:49:10.386Z,63.10
2022-11-30T04:50:10.395Z,62.90
2022-11-30T04:51:10.363Z,66.40
2022-11-30T04:52:10.365Z,68.00
2022-11-30T04:53:10.338Z,62.70
2022-11-30T04:54:10.337Z,62.60
2022-11-30T04:55:10.336Z,56.40
2022-11-30T04:56:10.316Z,57.00
2022-11-30T04:57:10.297Z,58.80
2022-11-30T04:58:10.297Z,58.60
2022-11-30T04:59:10.278Z,56.80
2022-11-30T05:00:10.292Z,60.50
2022-11-30T05:01:10.280Z,61.80
2022-11-30T05:02:10.304Z,61.30
2022-11-30T05:03:10.241Z,62.00
2022-11-30T05:04:10.286Z,58.90
2022-11-30T05:05:10.238Z,56.40
2022-11-30T05:06:10.213Z,51.70
2022-11-30T05:07:10.199Z,58.00
2022-11-30T05:08:10.191Z,62.50
2022-11-30T05:09:10.181Z,52.50
2022-11-30T05:10:10.192Z,56.40
2022-11-30T05:11:10.162Z,56.10
2022-11-30T05:12:10.151Z,53.30
2022-11-30T05:13:10.133Z,53.60
2022-11-30T05:14:10.131Z,50.40
2022-11-30T05:15:10.113Z,55.20
2022-11-30T05:16:10.168Z,59.20
2022-11-30T05:17:10.097Z,49.60
2022-11-30T05:18:10.092Z,50.90
2022-11-30T05:19:10.074Z,61.50
2022-11-30T05:20:10.074Z,63.10
2022-11-30T05:21:10.074Z,59.50
2022-11-30T05:22:10.055Z,57.30
2022-11-30T05:23:10.038Z,61.60
2022-11-30T05:24:10.026Z,57.50
2022-11-30T05:25:10.015Z,57.00
2022-11-30T05:26:10.028Z,60.30
2022-11-30T05:27:14.436Z,55.70
2022-11-30T05:28:10.987Z,63.00
2022-11-30T05:29:09.976Z,72.80
2022-11-30T05:30:09.967Z,71.60
2022-11-30T05:31:09.998Z,70.30
2022-11-30T05:32:09.948Z,83.60
2022-11-30T05:33:09.938Z,72.90
2022-11-30T05:34:09.927Z,75.70
2022-11-30T05:35:09.909Z,76.60
2022-11-30T05:36:10.962Z,73.10
2022-11-30T05:37:09.896Z,78.10
2022-11-30T05:38:09.901Z,82.50
2022-11-30T05:39:09.870Z,83.10
2022-11-30T05:40:09.861Z,83.80
2022-11-30T05:41:09.872Z,81.80
2022-11-30T05:42:09.843Z,84.30
2022-11-30T05:43:09.830Z,85.50
2022-11-30T05:44:09.828Z,82.00
2022-11-30T05:45:09.808Z,90.30
2022-11-30T05:46:09.823Z,84.90
2022-11-30T05:47:09.889Z,85.80
2022-11-30T05:48:09.782Z,86.30
2022-11-30T05:49:09.773Z,81.00
2022-11-30T05:50:09.765Z,85.50
2022-11-30T05:51:09.772Z,88.40
2022-11-30T05:52:09.744Z,87.70
2022-11-30T05:53:09.726Z,83.70
2022-11-30T05:54:09.726Z,89.80
2022-11-30T05:55:09.704Z,85.20
2022-11-30T05:56:09.733Z,88.60
2022-11-30T05:57:09.686Z,90.90
2022-11-30T05:58:09.676Z,88.90
2022-11-30T05:59:09.663Z,97.10
2022-11-30T06:00:09.657Z,103.20
2022-11-30T06:01:09.665Z,102.40
2022-11-30T06:02:09.726Z,107.50
2022-11-30T06:03:09.731Z,92.10
2022-11-30T06:04:09.618Z,90.60
2022-11-30T06:05:09.602Z,90.20
2022-11-30T06:06:09.618Z,91.50
2022-11-30T06:07:09.580Z,99.90
2022-11-30T06:08:09.576Z,97.50
2022-11-30T06:09:09.558Z,95.00
2022-11-30T06:10:09.556Z,93.80
2022-11-30T06:11:09.559Z,98.50
2022-11-30T06:12:09.541Z,94.80
2022-11-30T06:13:09.519Z,92.10
2022-11-30T06:14:09.521Z,93.90
2022-11-30T06:15:09.500Z,90.50
2022-11-30T06:16:09.594Z,93.80
2022-11-30T06:17:09.481Z,90.20
2022-11-30T06:18:09.613Z,94.10
2022-11-30T06:19:09.461Z,97.30
2022-11-30T06:20:09.463Z,91.60
2022-11-30T06:21:09.464Z,90.70
2022-11-30T06:22:09.433Z,88.30
2022-11-30T06:23:09.421Z,91.10
2022-11-30T06:24:09.423Z,86.30
2022-11-30T06:25:09.403Z,94.30
2022-11-30T06:26:09.416Z,84.40
2022-11-30T06:27:09.374Z,81.60
2022-11-30T06:28:09.384Z,85.50
2022-11-30T06:29:09.356Z,79.00
2022-11-30T06:30:09.356Z,75.50
2022-11-30T06:31:09.394Z,75.10
2022-11-30T06:32:09.328Z,80.50
2022-11-30T06:33:09.335Z,76.40
2022-11-30T06:34:09.310Z,75.30
2022-11-30T06:35:09.298Z,82.60
2022-11-30T06:36:09.307Z,82.90
2022-11-30T06:37:09.275Z,76.00
2022-11-30T06:38:09.274Z,77.40
2022-11-30T06:39:09.248Z,78.80
2022-11-30T06:40:09.248Z,75.70
2022-11-30T06:41:09.260Z,77.70
2022-11-30T06:42:09.229Z,73.90
2022-11-30T06:43:09.210Z,80.70
2022-11-30T06:44:09.214Z,75.80
2022-11-30T06:45:09.196Z,86.30
2022-11-30T06:46:09.224Z,73.60
2022-11-30T06:47:09.171Z,76.10
2022-11-30T06:48:09.161Z,75.50
2022-11-30T06:49:09.159Z,73.40
2022-11-30T06:50:09.141Z,71.50
2022-11-30T06:51:09.177Z,76.30
2022-11-30T06:52:09.125Z,74.90
2022-11-30T06:53:09.114Z,75.70
2022-11-30T06:54:09.091Z,73.90
2022-11-30T06:55:09.033Z,74.60
2022-11-30T06:56:10.840Z,73.00
2022-11-30T06:57:09.013Z,75.80
2022-11-30T06:58:09.014Z,75.90
2022-11-30T06:59:08.994Z,74.50
2022-11-30T07:00:08.994Z,69.70
2022-11-30T07:01:09.079Z,74.30
2022-11-30T07:02:13.070Z,74.50
2022-11-30T07:03:10.015Z,80.10
2022-11-30T07:04:09.029Z,81.30
2022-11-30T07:05:09.016Z,80.00
2022-11-30T07:06:09.027Z,76.30
2022-11-30T07:07:08.917Z,73.90
2022-11-30T07:08:08.908Z,75.90
2022-11-30T07:09:08.893Z,75.30
2022-11-30T07:10:08.887Z,76.80
2022-11-30T07:11:08.887Z,76.90
2022-11-30T07:12:08.921Z,72.40
2022-11-30T07:13:08.859Z,73.70
2022-11-30T07:14:08.847Z,78.40
2022-11-30T07:15:08.830Z,79.10
2022-11-30T07:16:08.878Z,80.00
2022-11-30T07:17:08.825Z,82.60
2022-11-30T07:18:08.811Z,76.40
2022-11-30T07:19:08.791Z,72.20
2022-11-30T07:20:08.793Z,78.40
2022-11-30T07:21:08.792Z,75.30
2022-11-30T07:22:08.761Z,87.80
2022-11-30T07:23:08.751Z,77.10
2022-11-30T07:24:08.746Z,76.40
2022-11-30T07:25:08.723Z,72.20
2022-11-30T07:26:08.742Z,76.00
2022-11-30T07:27:08.702Z,80.10
2022-11-30T07:28:08.713Z,80.80
2022-11-30T07:29:08.683Z,74.50
2022-11-30T07:30:08.685Z,76.90
2022-11-30T07:31:13.329Z,79.30
2022-11-30T07:32:09.690Z,90.60
2022-11-30T07:33:08.645Z,84.70
2022-11-30T07:34:08.643Z,80.50
2022-11-30T07:35:08.625Z,79.40
2022-11-30T07:36:08.645Z,81.30
2022-11-30T07:37:08.619Z,77.10
2022-11-30T07:38:09.982Z,78.10
2022-11-30T07:39:08.585Z,82.30
2022-11-30T07:40:08.757Z,75.90
2022-11-30T07:41:08.586Z,80.00
2022-11-30T07:42:09.389Z,72.10
2022-11-30T07:43:08.547Z,72.40
2022-11-30T07:44:08.549Z,77.20
2022-11-30T07:45:08.519Z,77.40
2022-11-30T07:46:08.574Z,77.70
2022-11-30T07:47:08.499Z,75.50
2022-11-30T07:48:08.490Z,72.90
2022-11-30T07:49:08.479Z,67.00
2022-11-30T07:50:08.471Z,73.60
2022-11-30T07:51:08.481Z,74.50
2022-11-30T07:52:08.470Z,70.70
2022-11-30T07:53:08.441Z,69.50
2022-11-30T07:54:08.431Z,74.80
2022-11-30T07:55:08.431Z,72.40
2022-11-30T07:56:08.433Z,75.10
2022-11-30T07:57:08.403Z,75.10
2022-11-30T07:58:10.726Z,77.10
2022-11-30T07:59:09.373Z,73.50
2022-11-30T08:00:08.380Z,73.60
2022-11-30T08:01:08.480Z,76.00
2022-11-30T08:02:08.397Z,69.00
2022-11-30T08:03:08.334Z,78.40
2022-11-30T08:04:08.387Z,76.20
2022-11-30T08:05:08.327Z,77.00
2022-11-30T08:06:08.335Z,77.80
2022-11-30T08:07:08.298Z,82.90
2022-11-30T08:08:08.286Z,77.10
2022-11-30T08:09:08.275Z,80.80
2022-11-30T08:10:08.276Z,78.50
2022-11-30T08:11:08.289Z,83.90
2022-11-30T08:12:08.248Z,75.00
2022-11-30T08:13:08.246Z,74.70
2022-11-30T08:14:08.228Z,78.90
2022-11-30T08:15:30.560Z,76.00
2022-11-30T08:16:09.227Z,83.30
2022-11-30T08:17:08.299Z,78.50
2022-11-30T08:18:08.178Z,76.60
2022-11-30T08:19:08.178Z,79.60
2022-11-30T08:20:08.162Z,78.00
2022-11-30T08:21:08.170Z,81.10
2022-11-30T08:22:08.140Z,78.90
2022-11-30T08:23:08.140Z,79.00
2022-11-30T08:24:08.155Z,83.30
2022-11-30T08:25:08.116Z,87.80
2022-11-30T08:26:08.121Z,87.90
2022-11-30T08:27:08.093Z,87.40
2022-11-30T08:28:08.085Z,83.00
2022-11-30T08:29:08.072Z,87.00
2022-11-30T08:30:08.064Z,80.50
2022-11-30T08:31:08.072Z,84.10
2022-11-30T08:32:08.073Z,86.20
2022-11-30T08:33:08.032Z,77.90
2022-11-30T08:34:08.022Z,81.20
2022-11-30T08:35:08.013Z,81.80
2022-11-30T08:36:08.015Z,79.70
2022-11-30T08:37:08.012Z,83.20
2022-11-30T08:38:07.974Z,81.70
2022-11-30T08:39:07.974Z,77.70
2022-11-30T08:40:07.957Z,79.80
2022-11-30T08:41:07.965Z,76.70
2022-11-30T08:42:07.955Z,79.70
2022-11-30T08:43:07.934Z,86.40
2022-11-30T08:44:07.916Z,88.70
2022-11-30T08:45:07.908Z,79.80
2022-11-30T08:46:27.374Z,85.40
2022-11-30T08:47:08.924Z,77.80
2022-11-30T08:48:07.877Z,80.60
2022-11-30T08:49:21.060Z,77.10
2022-11-30T08:50:08.849Z,73.90
2022-11-30T08:51:07.847Z,80.20
2022-11-30T08:52:17.063Z,76.70
2022-11-30T08:53:08.834Z,74.70
2022-11-30T08:54:07.816Z,80.70
2022-11-30T08:55:07.809Z,79.30
2022-11-30T08:56:07.798Z,76.00
2022-11-30T08:57:07.808Z,77.60
2022-11-30T08:58:07.776Z,75.70
2022-11-30T08:59:07.771Z,73.60
2022-11-30T09:00:07.752Z,80.20
2022-11-30T09:01:07.766Z,80.80
2022-11-30T09:02:07.778Z,79.20
2022-11-30T09:03:07.723Z,77.10
2022-11-30T09:04:07.715Z,70.60
2022-11-30T09:05:07.713Z,73.30
2022-11-30T09:06:07.693Z,75.40
2022-11-30T09:07:07.702Z,75.00
2022-11-30T09:08:08.515Z,73.20
2022-11-30T09:09:07.673Z,74.10
2022-11-30T09:10:07.653Z,71.60
2022-11-30T09:11:07.661Z,79.70
2022-11-30T09:12:07.645Z,72.50
2022-11-30T09:13:07.622Z,69.20
2022-11-30T09:14:07.607Z,77.00
2022-11-30T09:15:07.608Z,78.50
2022-11-30T09:16:07.668Z,74.30
2022-11-30T09:17:07.598Z,79.40
2022-11-30T09:18:07.578Z,72.20
2022-11-30T09:19:07.565Z,76.70
2022-11-30T09:20:07.550Z,75.40
2022-11-30T09:21:07.538Z,75.40
2022-11-30T09:22:07.538Z,73.40
2022-11-30T09:23:07.519Z,75.00
2022-11-30T09:24:07.506Z,75.50
2022-11-30T09:25:07.499Z,73.50
2022-11-30T09:26:07.481Z,72.80
2022-11-30T09:27:07.520Z,72.70
2022-11-30T09:28:12.166Z,70.00
2022-11-30T09:29:08.451Z,70.80
2022-11-30T09:30:07.442Z,73.40
2022-11-30T09:31:07.494Z,69.70
2022-11-30T09:32:07.442Z,62.50
2022-11-30T09:33:07.411Z,61.40
2022-11-30T09:34:07.403Z,72.40
2022-11-30T09:35:12.448Z,70.50
2022-11-30T09:36:08.382Z,62.90
2022-11-30T09:37:07.400Z,64.20
2022-11-30T09:38:07.362Z,62.70
2022-11-30T09:39:07.369Z,64.90
2022-11-30T09:40:07.344Z,64.40
2022-11-30T09:41:07.335Z,64.10
2022-11-30T09:42:07.335Z,61.80
2022-11-30T09:43:07.318Z,64.30
2022-11-30T09:44:07.302Z,63.80
2022-11-30T09:45:07.312Z,55.00
2022-11-30T09:46:07.326Z,57.00
2022-11-30T09:47:07.297Z,59.40
2022-11-30T09:48:07.257Z,62.10
2022-11-30T09:49:07.263Z,63.50
2022-11-30T09:50:07.238Z,59.60
2022-11-30T09:51:07.229Z,60.70
2022-11-30T09:52:07.237Z,56.30
2022-11-30T09:53:07.209Z,55.90
2022-11-30T09:54:07.199Z,56.50
2022-11-30T09:55:07.204Z,59.30
2022-11-30T09:56:07.181Z,55.50
2022-11-30T09:57:07.201Z,53.60
2022-11-30T09:58:07.167Z,52.50
2022-11-30T09:59:07.173Z,55.50
2022-11-30T10:00:07.140Z,56.80
2022-11-30T10:01:07.628Z,57.90
2022-11-30T10:02:07.253Z,52.70
2022-11-30T10:03:07.189Z,51.10
2022-11-30T10:04:07.102Z,50.80
2022-11-30T10:05:07.089Z,49.50
2022-11-30T10:06:07.073Z,46.80
2022-11-30T10:07:07.083Z,47.10
2022-11-30T10:08:07.087Z,51.90
2022-11-30T10:09:07.055Z,50.20
2022-11-30T10:10:30.979Z,51.30
2022-11-30T10:11:08.048Z,47.30
2022-11-30T10:12:07.154Z,46.10
2022-11-30T10:13:07.025Z,49.80
2022-11-30T10:14:07.006Z,49.90
2022-11-30T10:15:06.985Z,50.10
2022-11-30T10:16:07.006Z,50.50
2022-11-30T10:17:06.987Z,50.10
2022-11-30T10:18:06.948Z,52.10
2022-11-30T10:19:06.948Z,57.50
2022-11-30T10:20:06.938Z,47.90
2022-11-30T10:21:06.925Z,49.50
2022-11-30T10:22:06.939Z,50.60
2022-11-30T10:23:06.917Z,50.40
2022-11-30T10:24:06.899Z,48.00
2022-11-30T10:25:11.701Z,49.60
2022-11-30T10:26:07.869Z,48.80
2022-11-30T10:27:06.880Z,47.70
2022-11-30T10:28:24.307Z,46.00
2022-11-30T10:29:07.839Z,46.20
2022-11-30T10:30:06.830Z,47.00
2022-11-30T10:31:06.857Z,46.90
2022-11-30T10:32:06.823Z,49.00
2022-11-30T10:33:06.801Z,47.30
2022-11-30T10:34:06.793Z,49.30
2022-11-30T10:35:06.780Z,46.30
2022-11-30T10:36:06.762Z,49.00
2022-11-30T10:37:06.776Z,48.30
2022-11-30T10:38:06.743Z,43.10
2022-11-30T10:39:09.672Z,54.00
2022-11-30T10:40:07.723Z,49.30
2022-11-30T10:41:06.725Z,47.70
2022-11-30T10:42:06.721Z,49.90
2022-11-30T10:43:06.706Z,45.10
2022-11-30T10:44:06.686Z,47.20
2022-11-30T10:45:06.682Z,44.00
2022-11-30T10:46:06.713Z,48.00
2022-11-30T10:47:06.675Z,45.70
2022-11-30T10:48:06.643Z,53.70
2022-11-30T10:49:06.636Z,51.10
2022-11-30T10:50:06.628Z,47.80
2022-11-30T10:51:06.620Z,50.00
2022-11-30T10:52:06.617Z,51.80
2022-11-30T10:53:06.597Z,49.20
2022-11-30T10:54:06.585Z,47.20
2022-11-30T10:55:06.587Z,44.90
2022-11-30T10:56:06.570Z,46.60
2022-11-30T10:57:06.578Z,43.30
2022-11-30T10:58:06.539Z,45.30
2022-11-30T10:59:06.536Z,45.50
2022-11-30T11:00:06.541Z,45.30
2022-11-30T11:01:06.579Z,43.90
2022-11-30T11:02:06.603Z,40.20
2022-11-30T11:03:06.564Z,40.10
2022-11-30T11:04:06.530Z,40.90
2022-11-30T11:05:06.471Z,39.80
2022-11-30T11:06:06.452Z,37.60
2022-11-30T11:07:06.503Z,34.30
2022-11-30T11:08:07.537Z,37.70
2022-11-30T11:09:06.432Z,35.50
2022-11-30T11:10:06.415Z,37.20
2022-11-30T11:11:06.412Z,37.40
2022-11-30T11:12:06.422Z,37.60
2022-11-30T11:13:06.394Z,37.20
2022-11-30T11:14:06.374Z,39.10
2022-11-30T11:15:06.371Z,31.80
2022-11-30T11:16:06.378Z,30.40
2022-11-30T11:17:06.419Z,33.70
2022-11-30T11:18:06.335Z,31.20
2022-11-30T11:19:06.340Z,31.60
2022-11-30T11:20:06.315Z,30.00
2022-11-30T11:21:07.163Z,32.80
2022-11-30T11:22:06.316Z,30.70
2022-11-30T11:23:06.288Z,31.50
2022-11-30T11:24:06.277Z,31.00
2022-11-30T11:25:06.267Z,29.50
2022-11-30T11:26:06.255Z,30.80
2022-11-30T11:27:06.257Z,33.40
2022-11-30T11:28:06.228Z,29.40
2022-11-30T11:29:06.222Z,28.90
2022-11-30T11:30:06.208Z,29.50
2022-11-30T11:31:06.218Z,28.60
2022-11-30T11:32:06.222Z,30.80
2022-11-30T11:33:06.187Z,31.60
2022-11-30T11:34:06.169Z,32.60
2022-11-30T11:35:06.179Z,37.20
2022-11-30T11:36:06.149Z,33.70
2022-11-30T11:37:06.149Z,35.50
2022-11-30T11:38:06.153Z,34.90
2022-11-30T11:39:06.159Z,35.20
2022-11-30T11:40:06.109Z,35.30
2022-11-30T11:41:06.102Z,38.30
2022-11-30T11:42:06.092Z,38.00
2022-11-30T11:43:06.093Z,38.70
2022-11-30T11:44:06.063Z,38.30
2022-11-30T11:45:06.061Z,39.10
2022-11-30T11:46:06.103Z,39.60
2022-11-30T11:47:06.048Z,41.40
2022-11-30T11:48:06.044Z,37.60
2022-11-30T11:49:06.016Z,42.90
2022-11-30T11:50:06.007Z,38.90
2022-11-30T11:51:07.588Z,37.30
2022-11-30T11:52:05.984Z,39.00
2022-11-30T11:53:06.054Z,37.50
2022-11-30T11:54:06.012Z,39.00
2022-11-30T11:55:05.970Z,36.80
2022-11-30T11:56:05.937Z,38.30
2022-11-30T11:57:05.938Z,36.00
2022-11-30T11:58:05.950Z,38.10
2022-11-30T11:59:05.919Z,40.30
2022-11-30T12:00:05.906Z,40.70
2022-11-30T12:01:38.073Z,40.60
2022-11-30T12:02:06.880Z,40.40
2022-11-30T12:03:05.985Z,38.50
2022-11-30T12:04:05.891Z,36.80
2022-11-30T12:05:05.857Z,38.50
2022-11-30T12:06:05.840Z,37.30
2022-11-30T12:07:05.837Z,35.40
2022-11-30T12:08:05.923Z,36.10
2022-11-30T12:09:05.818Z,35.10
2022-11-30T12:10:21.876Z,38.60
2022-11-30T12:11:06.799Z,38.20
2022-11-30T12:12:05.780Z,36.40
2022-11-30T12:13:05.800Z,36.50
2022-11-30T12:14:05.763Z,37.40
2022-11-30T12:15:07.561Z,37.80
2022-11-30T12:16:05.809Z,37.90
2022-11-30T12:17:05.734Z,40.90
2022-11-30T12:18:09.073Z,36.40
2022-11-30T12:19:06.715Z,38.20
2022-11-30T12:20:05.696Z,39.80
2022-11-30T12:21:05.695Z,38.60
2022-11-30T12:22:05.682Z,35.50
2022-11-30T12:23:05.684Z,38.50
2022-11-30T12:24:05.656Z,36.40
2022-11-30T12:25:06.257Z,39.50
2022-11-30T12:26:05.635Z,39.50
2022-11-30T12:27:05.635Z,37.40
2022-11-30T12:28:05.628Z,41.60
2022-11-30T12:29:05.613Z,38.70
2022-11-30T12:30:05.617Z,41.20
2022-11-30T12:31:05.611Z,39.40
2022-11-30T12:32:05.576Z,39.20
2022-11-30T12:33:05.577Z,41.80
2022-11-30T12:34:05.558Z,45.90
2022-11-30T12:35:05.548Z,43.70
2022-11-30T12:36:05.546Z,47.90
2022-11-30T12:37:05.529Z,43.30
2022-11-30T12:38:05.529Z,46.40
2022-11-30T12:39:05.499Z,43.00
2022-11-30T12:40:05.490Z,42.00
2022-11-30T12:41:05.480Z,43.20
2022-11-30T12:42:05.477Z,42.00
2022-11-30T12:43:05.472Z,41.30
2022-11-30T12:44:05.460Z,44.90
2022-11-30T12:45:05.442Z,43.20
2022-11-30T12:46:05.462Z,43.90
2022-11-30T12:47:05.435Z,45.20
2022-11-30T12:48:05.442Z,45.90
2022-11-30T12:49:05.436Z,40.00
2022-11-30T12:50:05.393Z,40.20
2022-11-30T12:51:05.375Z,43.70
2022-11-30T12:52:05.383Z,41.80